NEW EXCHEQUER-LK MCCLURE (EXC)

Elevation: 879' · MERCED R basin · Operator: Merced Irrigation District

Provisional data, subject to change.
Query executed Wednesday at 21:45:11   clock

Select a sensor type for a plot of data.
Note: Reservoir Flows are daily averages.

Earlier

Date RES ELE    STORAGE    RES CHG    TOC STO    ABV TOC    OUTFLOW    INFLOW    PPT INC    TEMP MN    TEMP MX    TEMP AV    EVP PAN   
 FEET   AF   AF   AF   AF   CFS   CFS   INCHES   DEG F   DEG F   DEG F   INCHES  
06/28/2016 795.89 606574 -1616 858366 -251792 1730 867 0.00 74 103 89 0.53
06/29/2016 795.59 605151 -1375 863561 -258410 1611 894 0.00 74 101 87 0.53
06/30/2016 795.21 603353 -1230 868756 -- 1742 835 0.00 70 99 85 0.46
07/01/2016 794.66 600758 -1605 873951 -273193 2027 718 0.00 73 100 87 0.51
07/02/2016 794.25 598828 -1789 879145 -280317 1650 676 0.00 73 97 85 0.48
07/03/2016 793.74 596434 -1738 884340 -287906 1827 620 0.00 72 96 83 1.79
07/04/2016 793.26 594186 -1687 889535 -295349 1668 534 0.00 65 94 82 5.46
07/05/2016 792.73 591713 -1541 894730 -303017 1780 533 0.00 63 91 79 5.36
07/06/2016 792.11 588829 -1955 899925 -311096 1934 480 0.00 67 91 78 0.00
07/07/2016 791.51 586046 -- 905120 -319074 1846 443 0.00 66 90 77 0.38
07/08/2016 790.95 583459 -1803 910314 -326855 1745 441 0.00 58 90 77 0.38
07/09/2016 790.43 581064 -1981 915509 -334445 1548 340 0.00 --r 88 69 18882.00
07/10/2016 789.95 578860 -1746 920704 -341844 1515 404 0.00 58 84 72 11615.00
07/11/2016 789.49 576751 -1651 925899 -349148 1444 380 0.00 63 89 77 0.37
07/12/2016 788.91 574103 -2147 931094 -356990 1651 316 0.00 66 92 79 0.00
07/13/2016 788.25 571099 -2276 936288 -365189 1781 266 0.00 66 96 81 0.45
07/14/2016 787.54 567881 -2675 941483 -373602 1892 269 0.00 71 100 85 0.47
07/15/2016 786.82 564631 -2393 946678 -381190 1891 252 0.00 73 100 86 0.50
07/16/2016 786.19 561799 -2113 951873 -- 1651 222 0.00 69 96 83 22528.00
07/17/2016 785.55 558932 -2870 957068 -398136 1593 147 0.00 -99 N 94 73 23740.00
07/18/2016 784.75 555362 -2812 962262 -406900 2008 207 0.00 64 89 77 0.00
07/19/2016 784.09 552431 -2132 967457 -415026 1682 204 0.00 61 90 77 0.37
07/20/2016 783.53 549953 -2036 972652 -- 1470 220 0.00 67 93 80 0.37
07/21/2016 782.89 547130 -2869 977847 -430717 1602 178 0.00 67 94 81 0.00
07/22/2016 782.28 544448 -2286 983042 -438594 1513 160 0.00 68 95 82 0.45
07/23/2016 781.67 541778 -2101 988236 -446458 1524 178 0.00 68 99 83 0.48
07/24/2016 781.04 539029 -2313 993431 -454402 1544 157 0.00 71 102 86 737.80
07/25/2016 780.33 535944 -2564 998626 -462682 1677 122 0.00 74 101 87 0.00
07/26/2016 779.68 533130 -2381 1003821 -470691 1593 173 0.00 75 102 88 0.52
07/27/2016 -- -- -- -- -- -- -- -- -- -- -- --

Later | Latest

Warning! This data is preliminary and subject to revision.

Show EXC Map | Plot EXC Data | 1 Month EXC Data | Real-Time EXC Data | EXC Info